Weather History for Charlevoix, MI

Change the Weather History Date:

Sunday, January 20, 2013

  Actual Average Record
Temperature  
Mean Temperature 20 °F -  
Max Temperature 26 °F 27 °F 35 °F (2006)
Min Temperature 14 °F 16 °F -7 °F (2009)
Degree Days  
Heating Degree Days 45    
Moisture  
Dew Point 7 °F    
Average Humidity 68    
Maximum Humidity 88    
Minimum Humidity 55    
Precipitation  
Precipitation 0.00 in - - ()
Sea Level Pressure  
Sea Level Pressure 29.98 in    
Wind  
Wind Speed 24 mph (WNW)    
Max Wind Speed 33 mph    
Max Gust Speed 45 mph    
Visibility 5 miles    
Events Snow    
Averages and records for this station are not official NWS values.
T = Trace of Precipitation, MM = Missing Value Source: NWS Daily Summary

Daily Weather History Graph

Daily Weather History Graph

Search for Another Location

Airport:

Trip Planner

Search our weather history database for the weather conditions in past years. The results will help you decide how hot, cold, wet, or windy it might be!

Date:

Astronomy

Jan. 20, 2013 Rise Set
Actual Time 8:13 AM EST 5:31 PM EST
Civil Twilight 7:40 AM EST 6:04 PM EST
Nautical Twilight 7:04 AM EST 6:40 PM EST
Astronomical Twilight 6:29 AM EST 7:15 PM EST
Moon 12:33 PM EST (1/20) 2:43 AM EST (1/20)
Length of Visible Light 10h 23m
Length of Day
9h 18m
Waxing Gibbous, 66% of the Moon is Illuminated
Jan 20
Waxing Gibbous
Jan 26
Full
Feb 3
Last Quarter
Feb 10
New
Feb 17
First Quarter

Hourly Weather History & Observations

Time (EST) Temp. Windchill Dew Point Humidity Pressure Visibility Wind Dir Wind Speed Gust Speed Precip Events Conditions
12:15 AM 26.1 °F 9.3 °F 17.1 °F 69% 29.51 in 4.0 mi NW 31.1 mph 41.4 mph N/A   Haze
12:34 AM 24.6 °F 7.1 °F 16.5 °F 71% 29.53 in 4.0 mi WNW 32.2 mph 40.3 mph N/A   Haze
12:55 AM 23.9 °F 6.4 °F 16.3 °F 73% 29.55 in 7.0 mi WNW 31.1 mph 41.4 mph N/A   Overcast
1:14 AM 22.8 °F 4.4 °F 16.7 °F 77% 29.57 in 1.2 mi West 33.4 mph 42.6 mph N/A Snow Light Snow
1:35 AM 22.6 °F 4.6 °F 15.8 °F 75% 29.59 in 3.0 mi WNW 31.1 mph 44.9 mph N/A Snow Light Snow
1:54 AM 21.9 °F 3.1 °F 16.0 °F 78% 29.61 in 2.5 mi WNW 33.4 mph 42.6 mph N/A Snow Light Snow
3:35 AM 18.1 °F -1.8 °F 12.9 °F 80% 29.72 in 1.5 mi WNW 32.2 mph 41.4 mph N/A Snow Light Snow
3:54 AM 17.6 °F -2.8 °F 12.6 °F 81% 29.74 in 0.8 mi West 33.4 mph 41.4 mph N/A Snow Snow
4:15 AM 17.6 °F -1.3 °F 14.5 °F 88% 29.75 in 0.2 mi WNW 27.6 mph 39.1 mph N/A Snow Heavy Snow
4:34 AM 18.5 °F -0.4 °F 12.7 °F 78% 29.77 in 1.2 mi NW 28.8 mph 42.6 mph N/A Snow Light Snow
4:55 AM 18.3 °F -1.5 °F 9.9 °F 70% 29.79 in 5.0 mi NW 32.2 mph 43.7 mph N/A   Haze
5:14 AM 18.1 °F -2.0 °F 10.2 °F 71% 29.81 in 5.0 mi NW 33.4 mph 44.9 mph N/A   Haze
5:35 AM 17.6 °F -2.8 °F 9.1 °F 69% 29.83 in 3.0 mi NW 33.4 mph 44.9 mph N/A Snow Light Snow
5:54 AM 17.4 °F -1.2 °F 8.6 °F 68% 29.86 in 4.0 mi NW 26.5 mph 35.7 mph N/A Snow Light Snow
6:15 AM 17.6 °F 0.1 °F 10.8 °F 75% 29.87 in 1.8 mi NW 23.0 mph 32.2 mph N/A Snow Light Snow
6:34 AM 17.4 °F 0.2 °F 7.5 °F 65% 29.89 in 3.0 mi NNW 21.9 mph 33.4 mph N/A Snow Light Snow
6:55 AM 16.7 °F -0.3 °F 9.1 °F 72% 29.90 in 1.5 mi NNW 20.7 mph 33.4 mph N/A Snow Light Snow
7:15 AM 16.7 °F -1.5 °F 7.5 °F 67% 29.92 in 4.0 mi NW 24.2 mph 33.4 mph N/A   Haze
7:34 AM 16.5 °F -0.6 °F 9.0 °F 72% 29.94 in 2.0 mi NW 20.7 mph 31.1 mph N/A Snow Light Snow
7:54 AM 16.2 °F -1.4 °F 7.9 °F 70% 29.95 in 4.0 mi NW 21.9 mph 31.1 mph N/A Snow Light Snow
8:15 AM 16.2 °F -2.9 °F 5.9 °F 64% 29.97 in 7.0 mi NW 26.5 mph 33.4 mph N/A   Overcast
8:35 AM 16.2 °F -1.0 °F 7.3 °F 68% 30.00 in 1.8 mi NW 20.7 mph 29.9 mph N/A Snow Light Snow
8:54 AM 16.3 °F -0.4 °F 7.3 °F 68% 30.01 in 10.0 mi NNW 19.6 mph 29.9 mph N/A   Overcast
9:15 AM 16.3 °F -0.8 °F 8.1 °F 70% 30.02 in 2.5 mi NW 20.7 mph 31.1 mph N/A   Haze
9:35 AM 15.8 °F -0.2 °F 9.1 °F 75% 30.03 in 1.0 mi NNW 17.3 mph 31.1 mph N/A Snow Light Snow
10:35 AM 15.8 °F -0.6 °F 7.7 °F 70% 30.07 in 1.8 mi WNW 18.4 mph 29.9 mph N/A   Haze
10:54 AM 15.8 °F -1.1 °F 7.0 °F 68% 30.08 in 2.0 mi WNW 19.6 mph 26.5 mph N/A   Haze
11:15 AM 15.6 °F -0.4 °F 5.5 °F 64% 30.09 in 10.0 mi WNW 17.3 mph 24.2 mph N/A   Overcast
11:35 AM 14.9 °F -1.3 °F 5.5 °F 66% 30.09 in 2.0 mi NW 17.3 mph 26.5 mph N/A Snow Light Snow
11:54 AM 15.1 °F -1.1 °F 5.5 °F 66% 30.09 in 2.5 mi WNW 17.3 mph 26.5 mph N/A   Haze
12:15 PM 14.9 °F -1.8 °F 5.9 °F 68% 30.09 in 3.0 mi WNW 18.4 mph 27.6 mph N/A   Haze
12:35 PM 14.7 °F 1.4 °F 6.4 °F 70% 30.09 in 1.5 mi NW 11.5 mph 24.2 mph N/A Snow Light Snow
12:55 PM 15.1 °F -1.6 °F 7.3 °F 71% 30.08 in 2.0 mi WNW 18.4 mph 24.2 mph N/A Snow Light Snow
1:15 PM 14.9 °F -1.8 °F 4.1 °F 62% 30.09 in 1.8 mi WNW 18.4 mph 25.3 mph N/A   Haze
1:35 PM 14.9 °F -1.8 °F 5.0 °F 65% 30.09 in 3.0 mi WNW 18.4 mph 26.5 mph N/A   Haze
1:55 PM 14.9 °F -2.3 °F 4.3 °F 63% 30.09 in 5.0 mi WNW 19.6 mph 27.6 mph N/A   Haze
2:15 PM 14.5 °F -2.7 °F 5.5 °F 68% 30.09 in 1.2 mi WNW 19.6 mph 29.9 mph N/A Snow Light Snow
2:34 PM 14.5 °F -1.8 °F 5.4 °F 67% 30.10 in 1.5 mi WNW 17.3 mph 25.3 mph N/A   Haze
2:55 PM 14.7 °F -0.5 °F 3.0 °F 60% 30.10 in 5.0 mi WNW 15.0 mph - N/A   Haze
3:34 PM 14.7 °F -2.0 °F 4.3 °F 63% 30.11 in 5.0 mi West 18.4 mph 24.2 mph N/A   Haze
3:55 PM 14.7 °F -1.1 °F 3.4 °F 61% 30.12 in 10.0 mi WNW 16.1 mph 21.9 mph N/A   Overcast
4:14 PM 14.7 °F -1.1 °F 4.8 °F 65% 30.12 in 10.0 mi WNW 16.1 mph 23.0 mph N/A   Overcast
5:14 PM 14.9 °F 0.9 °F 3.4 °F 60% 30.12 in 7.0 mi WNW 12.7 mph 21.9 mph N/A   Overcast
5:35 PM 14.7 °F -1.6 °F 3.6 °F 61% 30.13 in 5.0 mi WNW 17.3 mph 21.9 mph N/A   Haze
5:55 PM 14.9 °F -0.3 °F 2.8 °F 59% 30.12 in 7.0 mi WNW 15.0 mph - N/A   Overcast
6:15 PM 14.7 °F 0.7 °F 3.7 °F 62% 30.12 in 5.0 mi WNW 12.7 mph 23.0 mph N/A Snow Light Snow
6:35 PM 14.7 °F 1.4 °F 5.7 °F 68% 30.12 in 5.0 mi NW 11.5 mph 16.1 mph N/A Snow Light Snow
6:55 PM 14.7 °F 2.1 °F 4.3 °F 63% 30.13 in 10.0 mi WNW 10.4 mph 21.9 mph N/A   Overcast
7:14 PM 14.5 °F 0.5 °F 5.7 °F 68% 30.13 in 3.0 mi WNW 12.7 mph 19.6 mph N/A Snow Light Snow
7:34 PM 14.9 °F 0.3 °F 1.4 °F 55% 30.12 in 10.0 mi WNW 13.8 mph 17.3 mph N/A   Overcast
7:55 PM 14.4 °F -1.0 °F 5.0 °F 66% 30.13 in 5.0 mi West 15.0 mph - N/A Snow Light Snow
8:14 PM 14.4 °F -0.4 °F 3.9 °F 63% 30.12 in 10.0 mi NW 13.8 mph 20.7 mph N/A   Overcast
8:35 PM 14.0 °F 1.2 °F 5.7 °F 70% 30.12 in 5.0 mi WNW 10.4 mph - N/A Snow Light Snow
8:54 PM 14.0 °F 2.0 °F 5.0 °F 67% 30.12 in 4.0 mi WNW 9.2 mph - N/A Snow Light Snow
9:15 PM 14.2 °F 0.7 °F 2.3 °F 59% 30.11 in 7.0 mi NW 11.5 mph - N/A   Overcast
9:35 PM 14.0 °F -1.4 °F 2.8 °F 61% 30.10 in 10.0 mi NW 15.0 mph 20.7 mph N/A   Overcast
9:55 PM 14.0 °F -0.8 °F 3.7 °F 64% 30.10 in 5.0 mi NW 13.8 mph 20.7 mph N/A Snow Light Snow
10:15 PM 14.4 °F 0.2 °F 2.8 °F 60% 30.09 in 10.0 mi NW 12.7 mph 21.9 mph N/A   Overcast
10:34 PM 14.0 °F 2.0 °F 2.7 °F 61% 30.09 in 10.0 mi NW 9.2 mph 16.1 mph N/A   Overcast
10:55 PM 14.0 °F -0.2 °F 2.8 °F 61% 30.09 in 10.0 mi NW 12.7 mph 17.3 mph N/A   Overcast
11:14 PM 14.0 °F 1.2 °F 3.9 °F 64% 30.08 in 7.0 mi WNW 10.4 mph 17.3 mph N/A   Overcast
11:35 PM 14.0 °F 0.5 °F 5.0 °F 67% 30.07 in 5.0 mi WNW 11.5 mph 17.3 mph N/A Snow Light Snow
11:54 PM 14.2 °F 0.0 °F 4.6 °F 66% 30.06 in 5.0 mi NW 12.7 mph 18.4 mph N/A Snow Light Snow